createdAt,value
2019-04-16T00:02:03.024Z,17.25
2019-04-16T00:04:56.605Z,16.77
2019-04-16T00:07:42.591Z,16.87
2019-04-16T00:10:33.521Z,15.15
2019-04-16T00:13:27.965Z,16.12
2019-04-16T00:15:57.666Z,16.15
2019-04-16T00:18:26.742Z,16.10
2019-04-16T00:21:13.479Z,15.43
2019-04-16T00:24:10.874Z,16.30
2019-04-16T00:26:40.670Z,15.98
2019-04-16T00:29:12.521Z,16.23
2019-04-16T00:31:42.752Z,15.30
2019-04-16T00:34:14.535Z,15.85
2019-04-16T00:36:48.432Z,15.48
2019-04-16T00:39:15.863Z,15.78
2019-04-16T00:41:45.739Z,17.30
2019-04-16T00:44:15.001Z,15.88
2019-04-16T00:46:44.101Z,15.68
2019-04-16T00:49:13.497Z,15.30
2019-04-16T00:51:44.239Z,14.60
2019-04-16T00:54:15.626Z,14.90
2019-04-16T00:56:46.805Z,15.98
2019-04-16T00:59:16.316Z,15.18
2019-04-16T01:01:45.998Z,15.35
2019-04-16T01:04:15.383Z,14.77
2019-04-16T01:06:47.155Z,14.23
2019-04-16T01:09:16.668Z,15.40
2019-04-16T01:11:48.844Z,14.35
2019-04-16T01:14:17.880Z,16.70
2019-04-16T01:16:47.502Z,15.03
2019-04-16T01:19:17.490Z,15.90
2019-04-16T01:21:46.872Z,15.18
2019-04-16T01:24:19.969Z,16.12
2019-04-16T01:26:47.472Z,15.18
2019-04-16T01:29:17.283Z,14.60
2019-04-16T01:32:21.070Z,15.45
2019-04-16T01:35:21.360Z,15.28
2019-04-16T01:38:08.908Z,14.63
2019-04-16T01:40:50.129Z,16.33
2019-04-16T01:45:48.138Z,13.03
2019-04-16T01:48:17.553Z,16.90
2019-04-16T01:50:47.288Z,17.30
2019-04-16T01:53:18.372Z,14.17
2019-04-16T01:55:48.561Z,15.30
2019-04-16T01:58:18.355Z,15.32
2019-04-16T02:00:47.987Z,13.87
2019-04-16T02:03:18.542Z,11.97
2019-04-16T02:05:49.509Z,14.83
2019-04-16T02:08:21.916Z,12.97
2019-04-16T02:10:51.700Z,13.10
2019-04-16T02:13:21.130Z,14.90
2019-04-16T02:15:53.161Z,13.27
2019-04-16T02:30:46.388Z,14.27
2019-04-16T02:33:15.880Z,13.00
2019-04-16T02:35:46.367Z,15.70
2019-04-16T02:38:16.054Z,13.50
2019-04-16T02:40:51.377Z,15.73
2019-04-16T02:43:16.926Z,17.83
2019-04-16T02:45:46.404Z,14.20
2019-04-16T02:48:17.224Z,13.47
2019-04-16T02:50:50.467Z,17.33
2019-04-16T02:53:37.809Z,14.60
2019-04-16T02:56:25.724Z,15.73
2019-04-16T02:59:09.687Z,14.40
2019-04-16T03:04:27.696Z,14.70
2019-04-16T03:07:02.671Z,14.80
2019-04-16T03:09:28.978Z,13.43
2019-04-16T03:11:58.056Z,12.93
2019-04-16T03:14:30.041Z,14.83
2019-04-16T03:17:32.554Z,16.80
2019-04-16T03:20:03.649Z,17.47
2019-04-16T03:22:33.489Z,14.33
2019-04-16T03:25:05.067Z,15.57
2019-04-16T03:27:34.610Z,15.03
2019-04-16T03:30:06.417Z,15.40
2019-04-16T03:32:47.953Z,16.27
2019-04-16T03:35:17.206Z,13.40
2019-04-16T03:37:46.457Z,16.47
2019-04-16T03:40:18.881Z,15.05
2019-04-16T03:42:47.663Z,15.77
2019-04-16T03:45:17.491Z,16.07
2019-04-16T03:47:50.890Z,16.90
2019-04-16T03:50:19.355Z,14.40
2019-04-16T03:52:48.558Z,18.43
2019-04-16T03:55:17.731Z,17.13
2019-04-16T03:57:48.875Z,17.20
2019-04-16T04:00:18.520Z,17.12
2019-04-16T04:02:55.583Z,18.15
2019-04-16T04:05:26.221Z,16.40
2019-04-16T04:07:56.725Z,17.35
2019-04-16T04:10:30.837Z,16.40
2019-04-16T04:12:58.718Z,16.23
2019-04-16T04:15:29.402Z,17.12
2019-04-16T04:17:59.289Z,17.55
2019-04-16T04:20:29.009Z,17.23
2019-04-16T04:22:58.157Z,17.83
2019-04-16T04:25:27.958Z,16.67
2019-04-16T04:27:58.294Z,17.43
2019-04-16T04:30:28.843Z,19.73
2019-04-16T04:32:59.258Z,19.23
2019-04-16T04:35:29.582Z,17.17
2019-04-16T04:38:00.723Z,21.87
2019-04-16T04:48:00.565Z,17.47
2019-04-16T04:50:32.474Z,20.50
2019-04-16T04:53:02.369Z,16.63
2019-04-16T04:55:32.493Z,18.20
2019-04-16T04:58:10.939Z,17.20
2019-04-16T05:00:41.186Z,17.90
2019-04-16T05:03:15.617Z,15.63
2019-04-16T05:05:50.285Z,20.97
2019-04-16T05:08:20.053Z,15.87
2019-04-16T05:10:58.717Z,19.67
2019-04-16T05:13:24.910Z,17.07
2019-04-16T05:15:53.087Z,18.37
2019-04-16T05:18:24.486Z,18.83
2019-04-16T05:20:58.263Z,19.00
2019-04-16T05:23:31.539Z,16.30
2019-04-16T05:26:23.352Z,21.17
2019-04-16T05:28:53.315Z,17.90
2019-04-16T05:31:25.653Z,19.53
2019-04-16T05:33:53.971Z,20.53
2019-04-16T05:36:23.999Z,17.73
2019-04-16T05:38:56.818Z,19.03
2019-04-16T05:41:29.607Z,18.83
2019-04-16T05:44:02.162Z,20.37
2019-04-16T05:46:38.323Z,19.83
2019-04-16T05:51:36.177Z,18.67
2019-04-16T05:54:23.622Z,21.97
2019-04-16T05:56:57.908Z,22.70
2019-04-16T05:59:27.836Z,18.73
2019-04-16T06:02:02.790Z,20.87
2019-04-16T06:04:32.975Z,20.30
2019-04-16T06:07:07.319Z,22.10
2019-04-16T06:09:34.086Z,19.80
2019-04-16T06:20:05.695Z,20.50
2019-04-16T06:22:45.187Z,19.33
2019-04-16T06:25:34.503Z,24.03
2019-04-16T06:28:21.748Z,22.60
2019-04-16T06:31:19.157Z,20.33
2019-04-16T06:34:24.361Z,20.33
2019-04-16T06:37:05.726Z,19.60
2019-04-16T06:40:00.913Z,20.20
2019-04-16T06:42:51.455Z,17.90
2019-04-16T07:25:45.227Z,21.13
2019-04-16T10:43:03.783Z,9.47
2019-04-16T10:45:50.977Z,11.03
2019-04-16T10:48:30.524Z,11.10
2019-04-16T10:51:16.191Z,11.70
2019-04-16T10:53:49.847Z,10.57
2019-04-16T10:56:37.932Z,10.77
2019-04-16T11:02:40.916Z,12.53
2019-04-16T11:05:35.333Z,10.30
2019-04-16T11:08:07.468Z,11.53
2019-04-16T11:10:37.307Z,10.07
2019-04-16T11:13:08.627Z,12.03
2019-04-16T11:15:38.275Z,10.70
2019-04-16T11:18:07.819Z,11.25
2019-04-16T11:20:37.261Z,12.47
2019-04-16T11:33:08.892Z,10.30
2019-04-16T11:35:38.898Z,9.30
2019-04-16T11:38:08.638Z,10.53
2019-04-16T11:40:41.060Z,9.78
2019-04-16T11:43:09.889Z,9.75
2019-04-16T11:45:39.390Z,10.20
2019-04-16T12:03:27.220Z,11.48
2019-04-16T12:06:27.171Z,11.53
2019-04-16T12:14:45.238Z,11.30
2019-04-16T12:17:39.552Z,10.37
2019-04-16T12:20:41.287Z,11.53
2019-04-16T12:23:42.224Z,10.07
2019-04-16T12:26:32.437Z,11.38
2019-04-16T12:29:11.246Z,10.70
2019-04-16T12:31:54.697Z,12.53
2019-04-16T12:34:42.290Z,11.65
2019-04-16T12:37:20.748Z,11.03
2019-04-16T12:40:18.923Z,12.30
2019-04-16T12:43:14.749Z,11.90
2019-04-16T12:46:07.291Z,12.35
2019-04-16T12:49:09.757Z,11.95
2019-04-16T12:51:52.042Z,11.50
2019-04-16T12:54:40.278Z,11.48
2019-04-16T12:57:16.708Z,11.50
2019-04-16T13:00:11.263Z,11.80
2019-04-16T13:03:16.356Z,11.57
2019-04-16T13:06:07.381Z,11.87
2019-04-16T13:08:54.413Z,10.20
2019-04-16T13:11:42.551Z,10.88
2019-04-16T13:14:37.554Z,9.05
2019-04-16T13:17:19.353Z,10.80
2019-04-16T13:20:14.249Z,12.43
2019-04-16T13:22:47.019Z,10.85
2019-04-16T13:25:26.056Z,11.30
2019-04-16T13:27:55.582Z,11.73
2019-04-16T13:30:25.111Z,10.60
2019-04-16T13:32:54.645Z,11.28
2019-04-16T13:35:23.767Z,11.88
2019-04-16T13:37:53.518Z,11.95
2019-04-16T13:40:23.485Z,12.07
2019-04-16T13:42:53.268Z,12.15
2019-04-16T13:45:27.496Z,10.80
2019-04-16T13:48:13.890Z,11.70
2019-04-16T13:50:44.909Z,11.68
2019-04-16T13:53:42.647Z,12.50
2019-04-16T13:56:21.261Z,12.55
2019-04-16T13:59:18.528Z,12.47
2019-04-16T14:02:10.133Z,12.10
2019-04-16T14:04:40.300Z,12.18
2019-04-16T14:07:09.482Z,12.65
2019-04-16T14:09:38.910Z,12.20
2019-04-16T14:12:08.738Z,13.35
2019-04-16T14:14:40.253Z,13.48
2019-04-16T14:17:11.232Z,11.63
2019-04-16T14:19:40.995Z,12.23
2019-04-16T14:22:10.866Z,12.15
2019-04-16T14:24:40.952Z,12.93
2019-04-16T14:27:13.972Z,12.60
2019-04-16T14:29:42.999Z,15.93
2019-04-16T14:32:12.670Z,15.05
2019-04-16T14:34:50.745Z,14.25
2019-04-16T14:37:20.824Z,12.80
2019-04-16T14:40:08.588Z,13.53
2019-04-16T14:42:39.408Z,10.58
2019-04-16T14:45:22.530Z,14.15
2019-04-16T14:47:53.062Z,13.08
2019-04-16T14:50:23.409Z,12.50
2019-04-16T14:52:56.479Z,12.03
2019-04-16T14:56:00.736Z,13.30
2019-04-16T14:58:42.174Z,11.43
2019-04-16T15:01:32.618Z,13.20
2019-04-16T15:04:20.577Z,12.23
2019-04-16T15:07:27.481Z,11.35
2019-04-16T15:10:15.453Z,11.70
2019-04-16T15:12:58.861Z,13.35
2019-04-16T15:16:06.059Z,12.60
2019-04-16T15:18:57.233Z,12.30
2019-04-16T15:21:44.970Z,11.75
2019-04-16T15:24:18.674Z,11.50
2019-04-16T15:27:31.797Z,11.90
2019-04-16T15:30:30.832Z,11.33
2019-04-16T15:33:51.246Z,11.25
2019-04-16T15:36:49.892Z,11.18
2019-04-16T15:39:21.138Z,10.78
2019-04-16T15:42:17.687Z,10.43
2019-04-16T15:45:12.285Z,11.57
2019-04-16T15:48:23.790Z,10.65
2019-04-16T15:51:28.264Z,9.75
2019-04-16T15:54:24.584Z,9.83
2019-04-16T15:57:27.078Z,11.48
2019-04-16T16:00:10.163Z,10.20
2019-04-16T16:03:00.616Z,10.13
2019-04-16T16:05:40.384Z,12.07
2019-04-16T16:08:36.158Z,9.18
2019-04-16T16:11:16.373Z,11.33
2019-04-16T16:13:45.904Z,10.80
2019-04-16T16:16:17.948Z,10.68
2019-04-16T16:19:03.225Z,10.05
2019-04-16T16:21:32.766Z,9.75
2019-04-16T16:24:06.326Z,14.03
2019-04-16T16:26:33.517Z,11.85
2019-04-16T16:29:04.872Z,13.60
2019-04-16T16:31:39.110Z,11.65
2019-04-16T16:34:09.622Z,12.60
2019-04-16T16:36:41.126Z,11.70
2019-04-16T16:39:11.338Z,11.05
2019-04-16T16:41:41.962Z,13.22
2019-04-16T16:44:14.022Z,12.75
2019-04-16T16:46:57.309Z,13.18
2019-04-16T16:49:26.531Z,13.28
2019-04-16T16:52:14.354Z,12.27
2019-04-16T16:54:43.956Z,14.60
2019-04-16T16:57:28.321Z,15.65
2019-04-16T17:04:06.783Z,15.35
2019-04-16T17:06:33.917Z,13.75
2019-04-16T17:09:05.794Z,13.65
2019-04-16T17:11:35.380Z,14.55
2019-04-16T17:14:05.277Z,14.98
2019-04-16T17:16:35.062Z,17.05
2019-04-16T17:19:05.352Z,16.02
2019-04-16T17:21:35.197Z,14.57
2019-04-16T17:24:04.631Z,13.40
2019-04-16T17:26:36.207Z,14.20
2019-04-16T17:29:07.199Z,14.83
2019-04-16T17:31:38.896Z,12.27
2019-04-16T17:34:11.027Z,14.57
2019-04-16T17:36:42.001Z,15.03
2019-04-16T17:39:15.442Z,12.17
2019-04-16T17:41:55.248Z,14.73
2019-04-16T17:44:33.962Z,15.80
2019-04-16T17:47:31.966Z,11.50
2019-04-16T17:50:03.740Z,14.93
2019-04-16T17:52:42.433Z,11.65
2019-04-16T17:55:22.842Z,12.70
2019-04-16T17:58:08.630Z,18.53
2019-04-16T18:00:51.712Z,15.03
2019-04-16T18:03:43.221Z,13.80
2019-04-16T18:06:18.947Z,14.50
2019-04-16T18:09:07.907Z,14.33
2019-04-16T18:12:08.775Z,14.53
2019-04-16T18:14:59.652Z,14.80
2019-04-16T18:17:46.847Z,14.00
2019-04-16T18:20:33.447Z,12.80
2019-04-16T18:23:20.624Z,13.37
2019-04-16T18:26:21.419Z,14.90
2019-04-16T18:29:12.042Z,13.33
2019-04-16T18:31:45.725Z,13.40
2019-04-16T18:34:36.051Z,12.07
2019-04-16T18:37:28.143Z,11.85
2019-04-16T20:34:19.199Z,8.53
2019-04-16T20:36:48.799Z,9.37
2019-04-16T20:39:20.392Z,8.53
2019-04-16T20:41:53.027Z,7.43
2019-04-16T20:44:24.796Z,7.93
2019-04-16T20:46:58.279Z,8.00
2019-04-16T20:49:26.577Z,7.20
2019-04-16T20:52:00.469Z,11.63
2019-04-16T20:54:31.291Z,8.83
2019-04-16T20:59:31.552Z,9.73
2019-04-16T21:02:01.390Z,9.93
2019-04-16T21:04:30.930Z,11.90
2019-04-16T21:07:00.358Z,8.97
2019-04-16T21:12:01.571Z,10.60
2019-04-16T21:14:30.851Z,12.10
2019-04-16T21:17:05.748Z,11.53
2019-04-16T21:19:49.767Z,12.70
2019-04-16T21:22:19.316Z,9.43
2019-04-16T21:25:12.696Z,8.87
2019-04-16T21:27:50.886Z,11.23
2019-04-16T21:30:20.306Z,11.07
2019-04-16T21:33:20.251Z,11.57
2019-04-16T21:35:51.817Z,10.57
2019-04-16T21:38:42.214Z,11.40
2019-04-16T21:41:11.009Z,11.93
2019-04-16T21:43:41.028Z,13.10
2019-04-16T21:46:12.105Z,14.47
2019-04-16T21:48:41.391Z,11.17
2019-04-16T21:51:11.992Z,13.00
2019-04-16T21:53:43.923Z,10.87
2019-04-16T21:56:13.589Z,12.83
2019-04-16T21:59:41.827Z,10.77
2019-04-16T22:02:01.881Z,12.17
2019-04-16T22:04:31.079Z,10.77
2019-04-16T22:07:00.182Z,10.70
2019-04-16T22:09:30.022Z,10.40
2019-04-16T22:12:01.747Z,12.73
2019-04-16T22:14:33.792Z,12.47
2019-04-16T22:17:08.607Z,13.60
2019-04-16T22:19:53.257Z,12.17
2019-04-16T22:22:14.946Z,11.07
2019-04-16T22:24:44.385Z,11.23
2019-04-16T22:27:14.272Z,14.77
2019-04-16T22:29:47.646Z,11.53
2019-04-16T22:32:17.512Z,11.03
2019-04-16T22:34:47.101Z,10.80
2019-04-16T22:37:16.419Z,11.47
2019-04-16T22:40:08.457Z,13.08
2019-04-16T22:42:57.862Z,11.70
2019-04-16T22:45:53.382Z,11.70
2019-04-16T22:48:23.146Z,13.87
2019-04-16T22:50:53.397Z,13.20
2019-04-16T22:53:23.180Z,11.23
2019-04-16T22:55:56.359Z,17.63
2019-04-16T23:03:30.549Z,10.93
2019-04-16T23:06:05.937Z,12.83
2019-04-16T23:08:32.619Z,12.73
2019-04-16T23:11:07.025Z,14.20
2019-04-16T23:13:38.511Z,12.00
2019-04-16T23:16:08.348Z,12.93
2019-04-16T23:18:38.439Z,13.17
2019-04-16T23:21:16.065Z,11.12
2019-04-16T23:23:47.714Z,13.55
2019-04-16T23:26:19.554Z,14.28
2019-04-16T23:28:49.817Z,12.90
2019-04-16T23:31:22.777Z,13.53
2019-04-16T23:33:54.755Z,12.20
2019-04-16T23:36:23.982Z,12.85
2019-04-16T23:38:55.034Z,13.35
2019-04-16T23:41:27.437Z,12.45
2019-04-16T23:44:22.614Z,12.35
2019-04-16T23:47:33.393Z,13.68
2019-04-16T23:50:16.496Z,14.38
2019-04-16T23:53:07.170Z,12.00
2019-04-16T23:55:50.255Z,12.80
2019-04-16T23:58:28.286Z,11.40
